Tampa, Florida
Traffic Map
Current Weather Conditions
Tampa, Florida
Broken Clouds
Broken Clouds
23°
Feels Like: 23°
Wind Chill: 23° Ceiling: 25000
Heat Index: 23° Visibility: 10mi
Dew Point: 12° Wind: 7mph
Humidity: 51% Direction: 200° (SSW)
Pressure: 30in Gusts: 0mph
Raw Report DataKTPA 141953Z 20006KT 10SM FEW055 SCT140 BKN250 23/12 A3000 RMK AO2 SLP159 T02280122
Traffic Incident Summary
Active as of:
Severity:
Category:
InformationThere was an issue retrieving the traffic information for this location. Please try a different location or try again shortly.
Advertisements